Time;durP1;ratioP1;P1;durP2;ratioP2;P2;SDS_P1;SDS_P2;PMS_P1;PMS_P2;Temp;Humidity;BMP_temperature;BMP_pressure;BME280_temperature;BME280_humidity;BME280_pressure;Samples;Min_cycle;Max_cycle;Signal;HPM_P1;HPM_P2
2021/01/06 00:00:50;;;;;;;30.77;19.10;;;;;;;0.47;80.20;100481.20;1702780;82;21222;-85
2021/01/06 00:03:21;;;;;;;32.20;19.90;;;;;;;0.49;80.09;100474.05;1701655;83;21225;-84
2021/01/06 00:05:53;;;;;;;34.13;22.63;;;;;;;0.57;79.84;100476.44;1704063;82;21094;-87
2021/01/06 00:10:59;;;;;;;34.57;23.63;;;;;;;0.56;79.96;100476.06;1683615;81;21332;-91
2021/01/06 00:13:32;;;;;;;29.60;20.10;;;;;;;0.48;79.88;100475.02;1673108;83;21369;-91
2021/01/06 00:16:00;;;;;;;32.63;21.83;;;;;;;0.53;79.82;100476.33;1689577;83;21201;-88
2021/01/06 00:18:27;;;;;;;28.93;20.60;;;;;;;0.63;79.33;100479.55;1692970;83;21110;-90
2021/01/06 00:20:56;;;;;;;38.37;24.63;;;;;;;0.61;79.37;100488.84;1703528;82;21173;-90
2021/01/06 00:23:25;;;;;;;40.00;23.60;;;;;;;0.55;79.64;100484.91;1691511;83;21814;-86
2021/01/06 00:25:54;;;;;;;29.00;17.80;;;;;;;0.54;79.79;100480.60;1688444;83;22143;-87
2021/01/06 00:28:22;;;;;;;32.73;22.30;;;;;;;0.58;79.66;100484.67;1692992;83;21352;-90
2021/01/06 00:30:55;;;;;;;33.27;22.73;;;;;;;0.67;79.44;100479.66;1702560;83;21191;-88
2021/01/06 00:33:29;;;;;;;36.90;23.20;;;;;;;0.65;79.30;100477.14;1646451;85;21213;-87
2021/01/06 00:36:18;;;;;;;27.03;18.47;;;;;;;0.53;79.73;100477.64;1662245;84;21141;-87
2021/01/06 00:38:45;;;;;;;34.87;21.27;;;;;;;0.47;79.91;100472.88;1657471;85;21251;-90
2021/01/06 00:41:13;;;;;;;28.73;19.23;;;;;;;0.56;79.77;100480.00;1685628;84;21240;-89
2021/01/06 00:43:41;;;;;;;30.13;21.77;;;;;;;0.67;79.23;100475.72;1672915;85;21198;-84
2021/01/06 00:46:09;;;;;;;34.03;24.33;;;;;;;0.62;79.27;100477.37;1655947;84;21334;-86
2021/01/06 00:48:37;;;;;;;29.03;20.27;;;;;;;0.54;79.56;100474.53;1657838;85;21225;-84
2021/01/06 00:51:04;;;;;;;30.03;20.07;;;;;;;0.51;79.77;100465.58;1636646;85;21383;-86
2021/01/06 00:53:31;;;;;;;28.90;20.97;;;;;;;0.58;79.65;100463.69;1661097;84;21207;-87
2021/01/06 00:56:02;;;;;;;34.53;22.87;;;;;;;0.70;79.37;100471.06;1650337;85;21248;-87
2021/01/06 00:58:30;;;;;;;33.63;23.40;;;;;;;0.67;79.40;100461.28;1664575;85;21236;-87
2021/01/06 01:00:59;;;;;;;38.63;24.03;;;;;;;0.64;79.57;100462.83;1658018;85;21233;-87
2021/01/06 01:03:31;;;;;;;38.97;26.23;;;;;;;0.61;79.57;100452.11;1671143;85;21185;-84
2021/01/06 01:06:00;;;;;;;35.17;24.70;;;;;;;0.66;79.39;100447.80;1665424;85;21328;-87
2021/01/06 01:08:33;;;;;;;37.23;25.00;;;;;;;0.79;79.16;100451.11;1659170;85;21183;-88
2021/01/06 01:11:00;;;;;;;37.77;24.57;;;;;;;0.73;78.94;100455.55;1652585;85;21175;-87
2021/01/06 01:13:28;;;;;;;39.23;25.03;;;;;;;0.66;79.25;100450.42;1642681;85;21207;-87
2021/01/06 01:15:59;;;;;;;32.23;23.13;;;;;;;0.61;79.33;100444.73;1637157;86;21202;-87
2021/01/06 01:18:28;;;;;;;35.10;25.17;;;;;;;0.72;79.25;100450.78;1660723;85;21308;-87
2021/01/06 01:20:58;;;;;;;32.00;21.13;;;;;;;0.80;78.81;100455.91;1662971;85;21216;-85
2021/01/06 01:23:28;;;;;;;28.93;21.57;;;;;;;0.75;78.86;100452.32;1661762;85;21112;-88
2021/01/06 01:25:59;;;;;;;33.67;22.53;;;;;;;0.68;79.15;100440.19;1646642;85;21170;-87
2021/01/06 01:28:27;;;;;;;39.20;21.43;;;;;;;0.66;79.33;100445.17;1657608;85;21212;-87
2021/01/06 01:31:02;;;;;;;27.83;19.87;;;;;;;0.72;79.26;100452.09;1628438;85;21355;-87
2021/01/06 01:33:30;;;;;;;31.43;20.83;;;;;;;0.86;78.86;100441.80;1612699;87;21212;-88
2021/01/06 01:36:00;;;;;;;29.70;21.93;;;;;;;0.85;78.80;100439.30;1628814;86;21141;-88
2021/01/06 01:38:29;;;;;;;34.87;22.33;;;;;;;0.79;78.96;100437.99;1629604;86;21254;-88
2021/01/06 01:41:10;;;;;;;34.87;20.87;;;;;;;0.73;79.04;100435.38;1626633;87;21181;-88
2021/01/06 01:43:37;;;;;;;38.50;22.63;;;;;;;0.80;79.05;100431.80;1632374;86;21810;-88
2021/01/06 01:46:13;;;;;;;36.50;20.87;;;;;;;0.95;78.77;100439.75;1637732;87;21221;-88
2021/01/06 01:48:48;;;;;;;41.17;24.27;;;;;;;0.95;78.54;100437.13;1609755;87;21220;-89
2021/01/06 01:51:43;;;;;;;34.80;23.47;;;;;;;0.88;78.53;100429.39;1601231;87;21299;-89
2021/01/06 01:54:14;;;;;;;30.10;21.40;;;;;;;0.78;78.63;100413.55;1629152;87;21177;-90
2021/01/06 01:57:06;;;;;;;32.33;22.10;;;;;;;0.81;78.70;100418.20;1626763;86;21172;-90
2021/01/06 01:59:44;;;;;;;31.07;20.50;;;;;;;0.91;78.51;100421.77;1616430;87;21227;-90
2021/01/06 02:02:18;;;;;;;32.37;22.23;;;;;;;0.86;78.67;100411.62;1618722;86;21212;-91
2021/01/06 02:04:51;;;;;;;37.10;23.07;;;;;;;0.84;78.92;100428.45;1621121;86;21216;-90
2021/01/06 02:07:22;;;;;;;34.73;22.00;;;;;;;0.81;78.93;100420.82;1670637;85;21224;-90
2021/01/06 02:09:59;;;;;;;33.73;22.17;;;;;;;0.84;78.59;100415.34;1645988;86;21317;-91
2021/01/06 02:12:56;;;;;;;35.78;23.47;;;;;;;0.87;78.43;100417.72;1622152;87;21362;-92
2021/01/06 02:15:47;;;;;;;37.43;23.40;;;;;;;0.82;78.66;100415.45;1679123;84;21204;-90
2021/01/06 02:18:19;;;;;;;39.17;24.57;;;;;;;0.74;79.02;100416.56;1668462;84;21241;-91
2021/01/06 02:21:02;;;;;;;33.23;22.53;;;;;;;0.68;79.23;100411.33;1667051;84;21168;-91
2021/01/06 02:23:34;;;;;;;36.57;24.40;;;;;;;0.78;78.98;100417.97;1662169;84;21196;-90
2021/01/06 02:26:01;;;;;;;35.80;23.53;;;;;;;0.84;78.74;100421.89;1651510;84;21286;-90
2021/01/06 02:28:29;;;;;;;35.77;22.87;;;;;;;0.80;78.88;100420.48;1651331;86;21721;-90
2021/01/06 02:31:16;;;;;;;33.40;20.57;;;;;;;0.77;78.98;100416.30;1646055;84;21109;-92
2021/01/06 02:33:43;;;;;;;34.43;21.90;;;;;;;0.72;79.00;100400.11;1668847;84;21529;-93
2021/01/06 02:36:13;;;;;;;35.43;22.10;;;;;;;0.80;78.81;100401.62;1648705;84;21185;-90
2021/01/06 02:38:42;;;;;;;39.20;24.10;;;;;;;0.85;78.79;100401.23;1676161;84;21192;-90
2021/01/06 02:41:11;;;;;;;34.10;24.10;;;;;;;0.83;78.97;100405.78;1708789;83;21292;-91
2021/01/06 02:43:39;;;;;;;40.17;23.27;;;;;;;0.82;79.11;100409.38;1697534;83;21767;-90
2021/01/06 02:46:08;;;;;;;33.03;20.20;;;;;;;0.81;79.14;100409.87;1708735;83;21800;-88
2021/01/06 02:48:37;;;;;;;26.20;18.40;;;;;;;0.85;78.62;100405.17;1688478;83;21183;-91
2021/01/06 02:51:11;;;;;;;34.30;22.43;;;;;;;0.94;78.20;100412.31;1709599;83;21161;-89
2021/01/06 02:53:50;;;;;;;40.97;23.10;;;;;;;0.91;78.26;100405.53;1707540;83;21163;-90
2021/01/06 02:56:19;;;;;;;42.37;25.30;;;;;;;0.84;78.46;100403.04;1693369;83;21354;-90
2021/01/06 02:58:46;;;;;;;38.27;23.63;;;;;;;0.77;78.63;100401.86;1695213;83;21641;-89
2021/01/06 03:01:23;;;;;;;38.60;24.30;;;;;;;0.75;78.76;100395.91;1700828;83;21187;-91
2021/01/06 03:03:53;;;;;;;38.53;23.30;;;;;;;0.84;78.58;100414.02;1681871;84;21353;-92
2021/01/06 03:06:54;;;;;;;35.13;23.40;;;;;;;0.90;78.26;100401.71;1674745;84;21074;-90
2021/01/06 03:09:34;;;;;;;44.97;25.17;;;;;;;0.85;78.51;100409.97;1679213;84;22087;-90
2021/01/06 03:12:30;;;;;;;42.83;25.63;;;;;;;0.81;78.67;100403.31;1656187;85;21827;-91
2021/01/06 03:14:59;;;;;;;34.40;23.53;;;;;;;0.78;78.81;100406.99;1674678;84;22168;-89
2021/01/06 03:17:29;;;;;;;39.17;26.50;;;;;;;0.94;78.47;100405.75;1660348;85;21460;-90
2021/01/06 03:20:03;;;;;;;36.37;24.53;;;;;;;1.00;78.23;100407.90;1680305;85;21141;-89
2021/01/06 03:22:30;;;;;;;45.37;27.53;;;;;;;0.92;78.13;100399.34;1668815;83;21212;-90
2021/01/06 03:25:06;;;;;;;45.73;23.13;;;;;;;0.84;78.45;100400.91;1672731;84;21204;-90
2021/01/06 03:27:37;;;;;;;49.67;26.97;;;;;;;0.74;78.60;100400.81;1669535;84;21195;-89
2021/01/06 03:30:08;;;;;;;45.37;27.33;;;;;;;0.78;78.65;100396.98;1636653;86;21176;-90
2021/01/06 03:33:05;;;;;;;45.47;29.17;;;;;;;0.86;78.53;100401.12;1693223;80;21163;-87
2021/01/06 03:35:43;;;;;;;49.27;27.80;;;;;;;0.86;78.60;100406.86;1658036;82;21030;-88
2021/01/06 03:38:34;;;;;;;44.58;24.55;;;;;;;0.81;78.76;100400.69;1654585;83;21993;-90
2021/01/06 03:41:05;;;;;;;53.30;28.67;;;;;;;0.76;78.82;100402.34;1674547;82;21181;-88
2021/01/06 03:43:46;;;;;;;47.70;28.60;;;;;;;0.51;78.64;100355.42;1648031;84;21412;-91
2021/01/06 03:46:50;;;;;;;44.03;26.57;;;;;;;0.94;78.42;100403.98;1703060;81;21233;-88
2021/01/06 03:49:46;;;;;;;51.20;30.20;;;;;;;0.92;78.35;100398.48;1680240;83;21334;-93
2021/01/06 03:52:58;;;;;;;39.70;23.73;;;;;;;0.83;78.66;100402.70;1703996;81;21199;-89
2021/01/06 03:55:48;;;;;;;44.93;27.47;;;;;;;0.73;78.67;100410.45;1692077;82;21282;-89
2021/01/06 03:58:51;;;;;;;53.23;28.77;;;;;;;0.77;78.63;100394.84;1700891;80;21152;-90
2021/01/06 04:02:14;;;;;;;39.60;24.33;;;;;;;0.90;78.56;100392.04;1862492;75;23563;-91
2021/01/06 04:05:07;;;;;;;49.37;28.93;;;;;;;0.81;78.61;100390.64;1782821;76;21223;-94
2021/01/06 04:07:38;;;;;;;48.50;30.87;;;;;;;0.74;78.78;100395.57;1833907;76;21284;-94
2021/01/06 04:10:25;;;;;;;48.97;29.47;;;;;;;0.72;78.87;100405.36;1818342;77;21128;-90
2021/01/06 04:12:53;;;;;;;51.60;32.97;;;;;;;0.83;78.65;100395.28;1821386;77;21322;-91
2021/01/06 04:15:23;;;;;;;51.33;30.87;;;;;;;0.79;78.78;100394.70;1767576;79;21191;-90
2021/01/06 04:18:06;;;;;;;48.03;30.23;;;;;;;0.76;78.93;100391.03;1756125;81;21331;-89
2021/01/06 04:20:43;;;;;;;50.95;31.25;;;;;;;0.74;78.84;100399.02;1743229;80;21745;-91
2021/01/06 04:23:13;;;;;;;57.37;32.20;;;;;;;0.83;78.68;100404.47;1715374;80;21169;-91
2021/01/06 04:25:48;;;;;;;57.00;33.43;;;;;;;0.89;78.39;100391.70;1778204;80;21577;-90
2021/01/06 04:28:20;;;;;;;60.57;34.10;;;;;;;0.86;78.60;100397.19;1773859;79;21302;-93
2021/01/06 04:30:53;;;;;;;60.70;33.90;;;;;;;0.81;78.64;100384.08;1781318;79;21195;-89
2021/01/06 04:33:44;;;;;;;55.50;31.27;;;;;;;0.80;78.71;100396.37;1787061;79;21172;-89
2021/01/06 04:36:26;;;;;;;56.33;34.33;;;;;;;0.91;78.52;100395.52;1721086;80;21127;-91
2021/01/06 04:38:58;;;;;;;59.30;33.40;;;;;;;0.95;78.18;100395.62;1652067;84;21275;-92
2021/01/06 04:41:46;;;;;;;56.47;31.87;;;;;;;0.83;78.54;100406.64;1669222;83;21453;-92
2021/01/06 04:44:49;;;;;;;49.37;30.97;;;;;;;0.80;78.73;100400.31;1666083;85;21443;-90
2021/01/06 04:48:10;;;;;;;53.50;29.33;;;;;;;0.81;78.77;100409.02;1654996;85;21364;-92
2021/01/06 04:50:54;;;;;;;51.83;30.77;;;;;;;1.01;78.45;100419.22;1665731;84;21360;-92
2021/01/06 04:53:54;;;;;;;45.93;29.03;;;;;;;0.98;78.47;100416.37;1753286;80;21610;-89
2021/01/06 04:56:43;;;;;;;48.97;27.83;;;;;;;0.86;78.67;100414.73;1659857;84;21156;-90
2021/01/06 04:59:55;;;;;;;43.90;27.77;;;;;;;0.77;79.09;100416.30;1680864;83;21184;-90
2021/01/06 05:03:14;;;;;;;39.43;26.73;;;;;;;0.85;79.03;100421.78;1702444;83;21415;-89
2021/01/06 05:05:56;;;;;;;51.15;28.57;;;;;;;0.99;78.72;100426.39;1729353;80;21219;-89
2021/01/06 05:08:40;;;;;;;49.87;26.30;;;;;;;0.92;78.91;100429.98;1763255;80;21192;-90
2021/01/06 05:11:29;;;;;;;54.50;31.47;;;;;;;0.86;79.01;100436.55;1751335;80;21740;-88
2021/01/06 05:14:10;;;;;;;59.00;31.07;;;;;;;0.70;79.14;100410.72;1730980;79;21206;-92
2021/01/06 05:16:47;;;;;;;61.23;30.57;;;;;;;0.92;79.10;100421.64;1760364;79;21179;-91
2021/01/06 05:19:27;;;;;;;52.67;23.87;;;;;;;0.27;78.67;100294.82;1755332;80;21193;-91
2021/01/06 05:22:03;;;;;;;56.60;27.93;;;;;;;1.02;78.60;100426.13;1724334;80;21205;-91
2021/01/06 05:25:34;;;;;;;;;;;;;;;;;;;;;
2021/01/06 05:29:06;;;;;;;63.37;34.53;;;;;;;0.85;79.19;100442.77;1740384;81;21188;-93
2021/01/06 05:32:34;;;;;;;58.63;34.27;;;;;;;0.92;78.90;100446.58;1737259;79;21620;-93
2021/01/06 05:36:11;;;;;;;;;;;;;;;;;;;;;
2021/01/06 05:39:35;;;;;;;65.00;32.83;;;;;;;0.88;79.18;100439.88;1593130;83;21565;31
2021/01/06 05:42:54;;;;;;;65.67;38.53;;;;;;;0.83;79.27;100438.58;1650472;84;21524;-87
2021/01/06 05:45:25;;;;;;;56.90;33.83;;;;;;;0.97;79.16;100435.70;1626346;86;21252;-88
2021/01/06 05:48:18;;;;;;;53.27;31.87;;;;;;;1.05;78.94;100439.84;1609210;87;21199;-91
2021/01/06 05:51:37;;;;;;;52.07;33.67;;;;;;;1.08;79.15;100428.27;1762459;79;22642;-89
2021/01/06 05:54:32;;;;;;;64.53;32.17;;;;;;;0.80;79.04;100400.31;1753436;80;21195;-89
2021/01/06 05:57:16;;;;;;;56.50;31.53;;;;;;;0.99;79.11;100432.47;1705319;80;21785;-91
2021/01/06 06:00:13;;;;;;;53.33;31.83;;;;;;;0.83;78.70;100391.34;1748710;80;21298;-90
2021/01/06 06:04:06;;;;;;;55.33;33.33;;;;;;;1.22;78.44;100433.22;1798160;78;22905;-89
2021/01/06 06:07:10;;;;;;;58.73;34.73;;;;;;;1.04;78.63;100441.30;1718368;82;21116;-90
2021/01/06 06:10:24;;;;;;;49.40;29.67;;;;;;;0.92;79.00;100444.41;1718651;83;21300;-93
2021/01/06 06:13:17;;;;;;;48.90;28.30;;;;;;;1.04;79.05;100449.17;1715043;82;21141;-89
2021/01/06 06:16:34;;;;;;;58.40;34.63;;;;;;;1.11;78.55;100452.48;1675835;84;21179;-90
2021/01/06 06:19:44;;;;;;;62.30;31.90;;;;;;;1.01;78.80;100445.47;1697262;82;21202;-91
2021/01/06 06:22:35;;;;;;;73.87;35.43;;;;;;;0.91;79.23;100461.95;1709832;83;21319;-90
2021/01/06 06:25:07;;;;;;;66.87;29.93;;;;;;;0.90;79.49;100466.84;1672386;85;21179;-93
2021/01/06 06:28:13;;;;;;;71.73;34.17;;;;;;;0.99;79.09;100461.34;1683851;83;21146;-90
2021/01/06 06:31:00;;;;;;;81.65;38.63;;;;;;;1.10;78.81;100458.68;1686664;81;21216;-88
2021/01/06 06:33:35;;;;;;;74.07;33.20;;;;;;;1.02;78.98;100456.31;1669827;85;21304;-89
2021/01/06 06:36:14;;;;;;;79.03;36.37;;;;;;;0.95;79.26;100463.38;1660214;83;21141;-90
2021/01/06 06:41:43;;;;;;;63.40;36.00;;;;;;;1.11;79.26;100455.56;1879918;74;21248;-85
2021/01/06 06:44:25;;;;;;;63.57;36.37;;;;;;;1.13;79.16;100457.59;1780902;78;21330;-84
2021/01/06 06:47:15;;;;;;;57.50;33.17;;;;;;;1.12;79.21;100463.33;1796749;79;21271;-85
2021/01/06 06:50:33;;;;;;;61.23;34.33;;;;;;;1.11;79.22;100462.98;1795365;78;21186;-88
2021/01/06 06:53:35;;;;;;;;;;;;;;;;;;;;;
2021/01/06 06:58:05;;;;;;;;;;;;;;;;;;;;;
2021/01/06 07:00:46;;;;;;;56.93;30.47;;;;;;;1.20;78.97;100443.01;1813084;78;23064;-87
2021/01/06 07:03:27;;;;;;;57.47;30.57;;;;;;;1.12;79.19;100452.83;1785319;80;21188;-91
2021/01/06 07:05:59;;;;;;;52.03;28.50;;;;;;;1.16;79.05;100462.60;1727849;81;21100;-86
2021/01/06 07:08:31;;;;;;;67.77;35.03;;;;;;;1.21;78.99;100461.76;1711409;81;21221;-89
2021/01/06 07:11:20;;;;;;;56.83;33.37;;;;;;;1.19;79.06;100459.74;1749053;80;21188;-91
2021/01/06 07:14:53;;;;;;;62.93;34.05;;;;;;;1.16;79.40;100452.10;1746781;80;21192;-89
2021/01/06 07:17:34;;;;;;;54.20;30.77;;;;;;;1.18;79.66;100450.67;1737310;80;21176;-89
2021/01/06 07:20:12;;;;;;;61.43;32.77;;;;;;;1.21;79.49;100459.13;1763031;80;21179;-88
2021/01/06 07:22:46;;;;;;;64.10;35.17;;;;;;;1.32;79.20;100460.89;1713804;82;21206;-88
2021/01/06 07:25:25;;;;;;;65.27;33.57;;;;;;;1.38;79.16;100456.44;1726921;81;21326;-87
2021/01/06 07:27:58;;;;;;;67.73;32.33;;;;;;;1.36;79.25;100460.50;1719373;81;21222;-87
2021/01/06 07:30:45;;;;;;;75.47;34.33;;;;;;;1.33;79.43;100458.61;1722164;83;21205;-90
2021/01/06 07:33:35;;;;;;;82.47;38.50;;;;;;;1.31;79.44;100465.29;1730317;83;21171;-88
2021/01/06 07:36:13;;;;;;;89.73;39.17;;;;;;;1.38;79.20;100459.06;1720241;82;21082;-86
2021/01/06 07:38:40;;;;;;;79.93;40.23;;;;;;;1.51;78.96;100449.22;1696647;83;21306;-87
2021/01/06 07:41:08;;;;;;;79.57;39.93;;;;;;;1.58;79.00;100459.20;1703213;83;21200;-85
2021/01/06 07:44:28;;;;;;;72.35;35.80;;;;;;;1.57;79.07;100457.06;1674454;83;22205;-87
2021/01/06 07:47:14;;;;;;;72.77;35.43;;;;;;;1.38;79.00;100431.98;1689101;83;21180;-87
2021/01/06 07:50:06;;;;;;;70.30;37.40;;;;;;;1.52;78.88;100461.86;1700813;82;21185;-85
2021/01/06 07:52:48;;;;;;;;;;;;;;;1.55;78.70;100469.50;1672249;84;21563;-87
2021/01/06 07:55:45;;;;;;;67.20;34.63;;;;;;;1.64;78.38;100468.74;1644094;84;20820;-88
2021/01/06 07:58:37;;;;;;;71.47;37.23;;;;;;;1.60;78.64;100468.65;1656612;84;21208;-88
2021/01/06 08:01:35;;;;;;;90.37;44.00;;;;;;;1.54;78.78;100470.45;1671747;85;21211;-85
2021/01/06 08:04:09;;;;;;;;;;;;;;;1.49;79.09;100476.59;1638509;86;21250;-91
2021/01/06 08:06:57;;;;;;;76.12;37.83;;;;;;;1.50;79.30;100483.48;1630562;86;20169;-90
2021/01/06 08:09:33;;;;;;;91.50;42.40;;;;;;;1.49;79.17;100483.97;1623605;86;21219;-89
2021/01/06 08:12:04;;;;;;;62.77;31.27;;;;;;;1.64;78.54;100481.88;1663899;85;21196;-90
2021/01/06 08:14:53;;;;;;;72.37;34.93;;;;;;;1.65;78.54;100487.47;1817839;78;23670;-87
2021/01/06 08:17:27;;;;;;;69.40;37.17;;;;;;;1.49;78.89;100483.97;1717038;82;21781;-88
2021/01/06 08:20:02;;;;;;;59.70;34.20;;;;;;;1.42;79.13;100496.42;1706919;83;21425;-86
2021/01/06 08:29:33;;;;;;;64.00;33.00;;;;;;;1.44;79.15;100486.62;1773888;75;23067;-90
2021/01/06 08:32:22;;;;;;;66.87;35.73;;;;;;;1.30;79.34;100486.42;1719158;81;21274;-92
2021/01/06 08:35:19;;;;;;;52.30;28.07;;;;;;;1.22;79.74;100479.66;1732961;77;21292;-88
2021/01/06 08:37:50;;;;;;;;;;;;;;;1.32;79.66;100484.05;1682494;82;21609;-88
2021/01/06 08:40:37;;;;;;;53.00;28.47;;;;;;;1.37;79.47;100490.22;1664181;83;20235;-87
2021/01/06 08:43:11;;;;;;;53.60;27.70;;;;;;;1.24;79.99;100489.06;1668400;84;21204;-89
2021/01/06 08:45:54;;;;;;;51.50;28.87;;;;;;;1.15;80.40;100484.09;1671551;84;21377;-90
2021/01/06 08:48:31;;;;;;;41.30;23.03;;;;;;;1.15;80.42;100488.03;1649395;84;21242;-89
2021/01/06 08:51:13;;;;;;;55.33;28.13;;;;;;;1.28;80.23;100487.02;1636700;84;21168;-88
2021/01/06 08:53:44;;;;;;;53.90;30.13;;;;;;;1.21;80.25;100490.64;1668009;83;21116;-90
2021/01/06 08:56:25;;;;;;;57.00;30.47;;;;;;;1.09;80.68;100481.97;1642522;83;21343;-86
2021/01/06 08:59:04;;;;;;;49.83;29.40;;;;;;;0.99;81.38;100492.02;1688407;82;21305;-93
2021/01/06 09:02:20;;;;;;;56.37;28.30;;;;;;;1.11;80.90;100477.89;1706401;81;21160;-89
2021/01/06 09:05:50;;;;;;;49.03;29.20;;;;;;;1.08;81.20;100487.34;1695711;79;21184;-89
2021/01/06 09:08:42;;;;;;;51.00;29.57;;;;;;;1.09;81.39;100483.73;1720972;80;21196;-91
2021/01/06 09:11:58;;;;;;;47.77;26.80;;;;;;;1.24;81.34;100486.44;1794963;79;23115;-91
2021/01/06 09:14:33;;;;;;;56.60;32.10;;;;;;;1.33;80.79;100485.69;1770979;80;21166;-90
2021/01/06 09:17:17;;;;;;;52.53;27.20;;;;;;;1.36;80.64;100489.88;1750021;81;21184;-90
2021/01/06 09:21:39;;;;;;;48.40;26.70;;;;;;;1.38;80.87;100480.56;1839220;76;22257;-89
2021/01/06 09:24:20;;;;;;;40.73;26.63;;;;;;;1.39;80.56;100488.78;1834977;77;21155;-89
2021/01/06 09:27:01;;;;;;;51.40;30.27;;;;;;;1.55;80.31;100485.27;1828319;77;21217;-87
2021/01/06 09:29:41;;;;;;;48.50;28.93;;;;;;;1.63;80.30;100487.25;1820292;77;21343;-89
2021/01/06 09:32:25;;;;;;;47.10;28.93;;;;;;;1.67;80.64;100486.04;1815752;77;21184;-90
2021/01/06 09:35:18;;;;;;;42.30;26.30;;;;;;;1.76;80.27;100482.65;1805660;78;22929;-90
2021/01/06 09:38:03;;;;;;;46.92;27.80;;;;;;;1.74;80.10;100485.89;1724933;82;21182;-89
2021/01/06 09:40:31;;;;;;;48.10;28.00;;;;;;;1.83;79.76;100483.81;1738567;82;21192;-91
2021/01/06 09:43:06;;;;;;;44.27;26.60;;;;;;;1.93;79.06;100478.61;1744226;81;21176;-89
2021/01/06 09:45:35;;;;;;;50.33;28.47;;;;;;;1.94;78.97;100473.69;1698873;84;21338;-92
2021/01/06 09:48:14;;;;;;;39.40;24.27;;;;;;;1.90;79.24;100475.77;1657904;85;21184;-91
2021/01/06 09:50:54;;;;;;;41.73;27.50;;;;;;;1.93;79.30;100479.92;1727603;81;21212;-89
2021/01/06 09:53:25;;;;;;;45.57;27.27;;;;;;;1.82;78.58;100480.81;1676421;85;21207;-91
2021/01/06 09:56:05;;;;;;;44.40;28.30;;;;;;;1.84;78.61;100484.64;1694096;84;21337;-90
2021/01/06 09:59:21;;;;;;;47.37;27.60;;;;;;;1.89;78.61;100474.58;1826674;77;22308;-88
2021/01/06 10:06:00;;;;;;;56.10;39.77;;;;;;;1.75;79.65;100468.69;1713367;78;28413;-88
2021/01/06 10:08:41;;;;;;;;;;;;;;;1.88;79.43;100476.84;1672049;85;21155;-89
2021/01/06 10:16:06;;;;;;;50.17;30.63;;;;;;;2.19;78.82;100458.00;1816402;77;28307;-91
2021/01/06 10:18:58;;;;;;;52.37;30.43;;;;;;;2.14;78.99;100465.44;1772003;79;21153;-91
2021/01/06 10:21:59;;;;;;;53.67;30.73;;;;;;;2.13;78.73;100469.05;1781362;78;21176;-89
2021/01/06 10:24:33;;;;;;;58.80;32.70;;;;;;;2.12;78.92;100472.62;1719925;82;21237;-89
2021/01/06 10:27:16;;;;;;;49.07;29.47;;;;;;;2.19;78.50;100467.20;1694327;82;21156;-90
2021/01/06 10:29:50;;;;;;;52.03;30.13;;;;;;;2.31;77.93;100467.95;1773364;78;21333;-90
2021/01/06 10:32:45;;;;;;;48.10;30.27;;;;;;;2.29;77.90;100469.88;1763563;78;21371;-91
2021/01/06 10:35:37;;;;;;;70.07;36.93;;;;;;;2.22;78.03;100472.19;1773454;80;21590;-92
2021/01/06 10:38:37;;;;;;;66.70;34.83;;;;;;;2.17;78.27;100474.39;1720278;81;21817;-91
2021/01/06 10:41:28;;;;;;;58.58;33.33;;;;;;;2.17;78.35;100478.80;1729870;81;21203;-90
2021/01/06 10:43:59;;;;;;;58.00;30.90;;;;;;;2.24;78.01;100475.55;1729038;81;21229;-90
2021/01/06 10:46:44;;;;;;;53.20;32.53;;;;;;;2.35;77.60;100475.91;1718078;80;21267;-91
2021/01/06 10:49:24;;;;;;;50.33;30.90;;;;;;;2.33;77.79;100474.73;1722255;81;21313;-93
2021/01/06 10:52:16;;;;;;;48.63;31.13;;;;;;;2.31;77.79;100475.84;1711802;81;21233;-94
2021/01/06 11:03:22;;;;;;;53.77;32.67;;;;;;;2.12;77.78;100475.26;1600916;85;21266;-95
2021/01/06 11:07:36;;;;;;;;;;;;;;;;;;;;;
2021/01/06 11:11:28;;;;;;;48.03;29.90;;;;;;;1.95;77.93;100482.77;1725986;82;21310;-93
2021/01/06 11:15:30;;;;;;;51.50;29.90;;;;;;;1.74;78.75;100475.38;1697042;80;21294;-92
2021/01/06 11:18:46;;;;;;;50.50;31.23;;;;;;;1.70;79.21;100481.85;1729568;80;21807;-93
2021/01/06 11:22:49;;;;;;;;;;;;;;;;;;;;;
2021/01/06 11:25:55;;;;;;;47.10;30.03;;;;;;;1.75;79.93;100489.70;1826852;76;22789;-93
2021/01/06 11:42:18;;;;;;;54.87;30.27;;;;;;;1.94;79.36;100484.20;1736409;79;21133;-93
2021/01/06 11:49:53;;;;;;;55.77;32.13;;;;;;;1.92;79.78;100478.24;1742629;79;21104;-93
2021/01/06 11:53:00;;;;;;;46.37;28.30;;;;;;;2.14;79.43;100465.44;1746594;80;21141;-93
2021/01/06 12:00:09;;;;;;;46.43;28.63;;;;;;;2.32;78.96;100465.68;1795882;79;21085;-96
2021/01/06 12:03:47;;;;;;;49.60;28.97;;;;;;;2.32;78.78;100463.87;1811081;75;21053;-90
2021/01/06 12:22:45;;;;;;;53.00;30.47;;;;;;;2.20;78.46;100481.17;1719890;81;21278;-95
2021/01/06 12:51:22;;;;;;;62.45;45.80;;;;;;;4.13;73.83;100487.34;1660594;80;28584;-94
2021/01/06 13:06:01;;;;;;;59.50;36.93;;;;;;;3.70;73.84;100489.48;1644763;84;21317;-96
2021/01/06 13:23:04;;;;;;;47.13;27.93;;;;;;;2.73;76.69;100530.98;1655188;81;21377;-94
2021/01/06 13:30:01;;;;;;;45.57;28.03;;;;;;;2.82;76.92;100529.36;1820516;76;21242;-93
2021/01/06 13:44:02;;;;;;;44.90;28.00;;;;;;;2.35;78.25;100512.75;1828681;75;22255;-93
2021/01/06 13:58:04;;;;;;;55.20;41.18;;;;;;;2.29;79.08;100527.75;1850263;76;28150;-93
2021/01/06 14:01:33;;;;;;;;;;;;;;;;;;;;;
2021/01/06 14:04:25;;;;;;;50.60;31.37;;;;;;;2.60;78.49;100524.66;1869787;73;27483;-92
2021/01/06 14:07:48;;;;;;;60.53;30.13;;;;;;;2.60;78.36;100535.19;1843560;75;21055;-91
2021/01/06 14:11:31;;;;;;;53.57;29.60;;;;;;;2.73;77.94;100529.20;1763120;78;21107;-90
2021/01/06 14:15:16;;;;;;;49.27;28.67;;;;;;;2.69;77.95;100530.91;1792324;77;21288;-93
2021/01/06 14:28:58;;;;;;;;;;;;;;;;;;;;;
2021/01/06 14:32:22;;;;;;;37.87;25.43;;;;;;;2.41;78.17;100517.97;1843219;77;24800;-95
2021/01/06 14:35:18;;;;;;;41.60;25.33;;;;;;;2.32;78.20;100522.23;1814436;78;21164;-94
2021/01/06 14:38:38;;;;;;;40.17;24.47;;;;;;;2.28;78.32;100521.66;1797961;77;21128;-93
2021/01/06 14:42:17;;;;;;;40.60;25.93;;;;;;;2.25;78.37;100523.71;1773513;80;21130;-92
2021/01/06 14:45:34;;;;;;;39.77;25.17;;;;;;;2.39;77.98;100522.03;1793306;78;21200;-93
2021/01/06 14:59:25;;;;;;;36.37;23.57;;;;;;;2.19;78.55;100509.77;1825120;76;22285;-93
2021/01/06 15:02:37;;;;;;;37.93;23.73;;;;;;;2.12;78.78;100508.95;1784372;79;21290;-92
2021/01/06 15:05:37;;;;;;;35.33;23.50;;;;;;;2.36;78.53;100515.74;1752467;79;21934;-90
2021/01/06 15:32:49;;;;;;;39.33;24.73;;;;;;;2.72;78.38;100521.44;1669058;83;28220;-93
2021/01/06 15:35:40;;;;;;;38.53;24.47;;;;;;;2.67;78.36;100522.31;1614928;84;21332;-91
2021/01/06 15:49:43;;;;;;;38.87;22.90;;;;;;;2.64;78.21;100529.17;1802480;77;23102;-90
2021/01/06 15:52:32;;;;;;;40.83;24.27;;;;;;;2.64;78.07;100537.07;1794054;78;21174;-91
2021/01/06 15:55:28;;;;;;;39.67;25.67;;;;;;;2.84;77.75;100541.91;1787969;78;21168;-89
2021/01/06 15:58:06;;;;;;;40.97;25.90;;;;;;;2.88;77.64;100537.58;1779938;78;21179;-91
2021/01/06 16:04:38;;;;;;;38.53;23.00;;;;;;;2.80;77.55;100542.66;1648527;84;21276;-92
2021/01/06 16:07:30;;;;;;;37.47;24.50;;;;;;;2.67;76.89;100545.51;1756490;80;21812;-91
2021/01/06 16:10:14;;;;;;;43.80;28.37;;;;;;;2.73;76.85;100541.52;1737097;81;21209;-91
2021/01/06 16:12:50;;;;;;;43.87;28.13;;;;;;;2.70;76.84;100547.06;1706966;82;21626;-93
2021/01/06 16:15:29;;;;;;;51.20;30.37;;;;;;;2.61;77.19;100546.04;1739826;81;21172;-92
2021/01/06 16:18:05;;;;;;;46.57;29.50;;;;;;;2.53;77.41;100543.25;1754443;80;21299;-90
2021/01/06 16:20:39;;;;;;;43.40;28.53;;;;;;;2.59;77.34;100557.67;1738496;80;21187;-90
2021/01/06 16:23:23;;;;;;;46.80;30.00;;;;;;;2.54;77.21;100558.05;1705691;82;21128;-89
2021/01/06 16:25:56;;;;;;;39.83;27.60;;;;;;;2.43;77.78;100566.88;1757426;81;21342;-92
2021/01/06 16:28:28;;;;;;;40.77;27.83;;;;;;;2.32;78.01;100559.89;1731485;81;21195;-91
2021/01/06 16:31:27;;;;;;;50.30;30.97;;;;;;;2.34;78.06;100565.02;1719891;80;21164;-92